Garson, Canada
Current Conditions -  °F | °C
As of 10:30 PM on Saturday 25 Oct 2014 (Local Time) from CYSB Reporting Station
Rain Showers Rain Showers  
Wind Chill: 39°   Ceiling: 3000
Heat Index: 45°   Visibility: 15mi
Dew Point: 36°   Wind: 10mph
Humidity: 71%   Direction: 280°W
Pressure: 29.51"   Gusts: 25mph
Location:  46.57°N, 80.87°W
Report Text: CYSB 260230Z 28009G22KT 15SM -SHRA OVC030 07/02 A2951 RMK SC8 CU EMBD SLP002
Loading
Personal Weather Stations






























Interactive Weather Map
Tropical Storm Tracking
New forecast layout! Learn more

10-Day Weather Forecast

Advertisements
Track Severe Weather on mobile